This is the latest recevied weather packets stored in our database for station/object KG7BDA. If no packets are shown the sender has not sent any weather packets the latest 10 day(s).
| Time | Temp. | Humidity | Pressure | Rain* | Wind** | Luminosity | Snow |
|---|---|---|---|---|---|---|---|
| 1777966759 | 13.89° C | 53% | 1005.8 hPa | 0 mm | - | - | - |
| 1777966400 | 13.89° C | 52% | 1005.7 hPa | 0 mm | - | - | - |
| 1777966040 | 14.44° C | 52% | 1005.8 hPa | 0 mm | - | - | - |
| 1777965680 | 13.89° C | 52% | 1005.6 hPa | 0 mm | - | - | - |
| 1777965319 | 13.89° C | 52% | 1005.6 hPa | 0 mm | - | - | - |
| 1777964599 | 14.44° C | 50% | 1005.6 hPa | 0 mm | - | - | - |
| 1777964238 | 15° C | 49% | 1005.3 hPa | 0 mm | - | - | - |
| 1777963879 | 15.56° C | 47% | 1005.3 hPa | 0 mm | - | - | - |
| 1777963520 | 15.56° C | 47% | 1005.2 hPa | 0 mm | - | - | - |
| 1777963160 | 15.56° C | 47% | 1005.2 hPa | 0 mm | - | - | - |
| 1777962799 | 15.56° C | 47% | 1005.3 hPa | 0 mm | - | - | - |
| 1777962439 | 15.56° C | 47% | 1005.3 hPa | 0 mm | - | - | - |
| 1777962079 | 16.11° C | 45% | 1005.4 hPa | 0 mm | - | - | - |
| 1777961718 | 16.11° C | 44% | 1005.4 hPa | 0 mm | - | - | - |
| 1777961359 | 16.11° C | 45% | 1005.3 hPa | 0 mm | - | - | - |
| 1777960999 | 15.56° C | 46% | 1005.2 hPa | 0 mm | - | - | - |
| 1777960639 | 16.11° C | 44% | 1005.2 hPa | 0 mm | - | - | - |
| 1777960278 | 16.67° C | 42% | 1005.2 hPa | 0 mm | - | - | - |
| 1777959919 | 17.22° C | 42% | 1005.2 hPa | 0 mm | - | - | - |
| 1777959199 | 17.78° C | 40% | 1005.2 hPa | 0 mm | - | - | - |
| 1777958479 | 17.22° C | 41% | 1005.3 hPa | 0 mm | - | - | - |
| 1777958118 | 17.78° C | 39% | 1005.2 hPa | 0 mm | - | - | - |
| 1777957760 | 17.22° C | 41% | 1005 hPa | 0 mm | - | - | - |
| 1777957399 | 17.78° C | 39% | 1005.1 hPa | 0 mm | - | - | - |
| 1777957039 | 18.89° C | 36% | 1005 hPa | 0 mm | - | - | - |
* Rain latest hour (hover to see other rain measurements)
** Current wind speed in m/s (hover to see current wind gust speed)